Time;durP1;ratioP1;P1;durP2;ratioP2;P2;SDS_P1;SDS_P2;PMS_P1;PMS_P2;Temp;Humidity;BMP_temperature;BMP_pressure;BME280_temperature;BME280_humidity;BME280_pressure;Samples;Min_cycle;Max_cycle;Signal;HPM_P1;HPM_P2
2022/10/21 00:00:14;;;;;;;43.00;28.48;;;11.20;99.90;;;;;;5052635;28;20063;-55
2022/10/21 00:02:40;;;;;;;44.53;30.95;;;11.10;99.90;;;;;;5051267;28;20486;-57
2022/10/21 00:05:06;;;;;;;43.80;29.63;;;11.10;99.90;;;;;;5051131;28;20029;-55
2022/10/21 00:07:33;;;;;;;58.08;32.92;;;11.20;99.90;;;;;;5055416;28;20134;-55
2022/10/21 00:09:59;;;;;;;56.55;31.73;;;11.20;99.90;;;;;;5067328;28;20051;-55
2022/10/21 00:12:27;;;;;;;49.37;30.03;;;11.20;99.90;;;;;;5065295;28;20037;-54
2022/10/21 00:14:53;;;;;;;51.22;30.38;;;11.20;99.90;;;;;;5062179;28;20404;-53
2022/10/21 00:17:18;;;;;;;51.13;31.00;;;11.30;99.90;;;;;;5070596;28;20111;-52
2022/10/21 00:19:44;;;;;;;54.53;30.43;;;11.30;99.90;;;;;;5069800;28;20373;-52
2022/10/21 00:22:09;;;;;;;49.67;31.57;;;11.30;99.90;;;;;;5062231;28;20032;-56
2022/10/21 00:24:35;;;;;;;51.37;31.60;;;11.30;99.90;;;;;;5050216;28;20158;-53
2022/10/21 00:27:01;;;;;;;51.17;30.63;;;11.30;99.90;;;;;;5066765;28;20348;-53
2022/10/21 00:29:27;;;;;;;45.90;30.05;;;11.30;99.90;;;;;;5070536;28;20442;-55
2022/10/21 00:31:53;;;;;;;52.53;31.35;;;11.30;99.90;;;;;;5058196;28;20101;-57
2022/10/21 00:34:20;;;;;;;47.95;30.73;;;11.30;99.90;;;;;;5052973;28;20075;-57
2022/10/21 00:36:45;;;;;;;52.03;30.77;;;11.30;99.90;;;;;;5057175;28;20037;-53
2022/10/21 00:39:11;;;;;;;47.53;28.20;;;11.30;99.90;;;;;;5050284;28;20452;-57
2022/10/21 00:41:36;;;;;;;43.93;27.63;;;11.30;99.90;;;;;;5050268;28;20776;-57
2022/10/21 00:44:05;;;;;;;42.55;28.55;;;11.30;99.90;;;;;;5049682;28;20055;-56
2022/10/21 00:46:40;;;;;;;46.55;29.95;;;11.30;99.90;;;;;;5050216;28;20395;-56
2022/10/21 00:49:44;;;;;;;46.80;29.20;;;11.20;99.90;;;;;;5049374;28;20044;-55
2022/10/21 00:52:18;;;;;;;49.05;29.58;;;11.20;99.90;;;;;;5046050;28;20103;-53
2022/10/21 00:54:47;;;;;;;46.35;29.02;;;11.20;99.90;;;;;;5049528;28;20522;-56
2022/10/21 00:57:13;;;;;;;43.72;28.38;;;11.10;99.90;;;;;;5049665;28;20076;-54
2022/10/21 00:59:41;;;;;;;;;;;11.10;99.90;;;;;;5050412;28;20124;-56
2022/10/21 01:02:07;;;;;;;43.75;27.63;;;11.10;99.90;;;;;;5049334;28;19917;-55
2022/10/21 01:04:32;;;;;;;41.75;27.50;;;11.10;99.90;;;;;;5049631;28;20036;-53
2022/10/21 01:06:59;;;;;;;42.90;27.13;;;11.10;99.90;;;;;;5050010;28;20025;-56
2022/10/21 01:09:25;;;;;;;53.42;27.98;;;11.10;99.90;;;;;;5049836;28;20826;-56
2022/10/21 01:11:51;;;;;;;;;;;11.10;99.90;;;;;;5051306;28;20037;-54
2022/10/21 01:14:39;;;;;;;43.08;27.73;;;11.10;99.90;;;;;;5055558;28;20438;-56
2022/10/21 01:17:29;;;;;;;43.10;26.73;;;11.10;99.90;;;;;;5055560;28;20041;-54
2022/10/21 01:20:14;;;;;;;52.65;29.60;;;11.10;99.90;;;;;;5062685;28;20036;-53
2022/10/21 01:22:54;;;;;;;46.75;28.15;;;11.10;99.90;;;;;;5067926;28;20032;-55
2022/10/21 01:25:50;;;;;;;47.55;28.20;;;11.10;99.90;;;;;;5066552;28;20413;-55
2022/10/21 01:28:36;;;;;;;47.30;29.88;;;11.20;99.90;;;;;;5051251;28;20041;-52
2022/10/21 01:31:19;;;;;;;45.05;28.73;;;11.20;99.90;;;;;;5054477;28;20108;-55
2022/10/21 01:34:07;;;;;;;46.08;28.92;;;11.20;99.90;;;;;;5069478;28;20040;-54
2022/10/21 01:36:55;;;;;;;45.30;29.42;;;11.20;99.90;;;;;;5059558;28;20036;-53
2022/10/21 01:39:42;;;;;;;49.83;28.58;;;11.20;99.90;;;;;;5050655;28;20128;-54
2022/10/21 01:42:16;;;;;;;46.30;29.60;;;11.20;99.90;;;;;;5049742;28;20538;-53
2022/10/21 01:44:47;;;;;;;48.72;29.88;;;11.20;99.90;;;;;;5051684;28;20047;-54
2022/10/21 01:47:23;;;;;;;58.72;31.58;;;11.20;99.90;;;;;;5053615;28;20033;-54
2022/10/21 01:49:54;;;;;;;51.55;31.02;;;11.30;99.90;;;;;;5074939;28;20046;-54
2022/10/21 01:52:20;;;;;;;58.53;31.20;;;11.30;99.90;;;;;;5070591;28;20048;-53
2022/10/21 01:54:59;;;;;;;53.53;31.58;;;11.40;99.90;;;;;;5068060;28;20628;-56
2022/10/21 01:57:28;;;;;;;51.22;31.20;;;11.50;99.90;;;;;;5055755;28;20076;-55
2022/10/21 01:59:56;;;;;;;51.40;31.05;;;11.50;99.90;;;;;;5050981;28;20041;-55
2022/10/21 02:02:25;;;;;;;52.63;32.78;;;11.60;99.90;;;;;;5057601;28;20048;-54
2022/10/21 02:04:52;;;;;;;54.63;32.22;;;11.60;99.90;;;;;;5048931;28;20053;-57
2022/10/21 02:07:17;;;;;;;50.90;30.35;;;11.60;99.90;;;;;;5053010;28;20037;-52
2022/10/21 02:09:43;;;;;;;50.10;31.70;;;11.60;99.90;;;;;;5066897;28;20401;-53
2022/10/21 02:12:09;;;;;;;52.63;32.03;;;11.60;99.90;;;;;;5062326;28;20283;-55
2022/10/21 02:14:45;;;;;;;51.00;31.77;;;11.70;99.90;;;;;;5057672;28;20033;-53
2022/10/21 02:17:14;;;;;;;53.85;31.40;;;11.70;99.90;;;;;;5060003;28;20041;-53
2022/10/21 02:19:40;;;;;;;51.00;29.77;;;11.70;99.90;;;;;;5053380;28;20079;-56
2022/10/21 02:22:07;;;;;;;50.90;30.83;;;11.80;99.90;;;;;;5060537;28;20424;-54
2022/10/21 02:24:44;;;;;;;57.33;32.38;;;11.90;99.90;;;;;;5072690;28;20044;-56
2022/10/21 02:27:10;;;;;;;59.50;33.17;;;12.00;99.90;;;;;;5070461;28;20036;-53
2022/10/21 02:29:38;;;;;;;49.92;31.45;;;12.10;99.90;;;;;;5072533;28;20072;-56
2022/10/21 02:32:47;;;;;;;49.92;30.75;;;12.10;99.90;;;;;;5059969;28;20044;-56
2022/10/21 02:35:34;;;;;;;51.33;29.95;;;12.10;99.90;;;;;;5063880;28;20410;-57
2022/10/21 02:38:12;;;;;;;46.50;29.23;;;12.20;99.90;;;;;;5064961;28;20115;-57
2022/10/21 02:40:59;;;;;;;53.95;30.88;;;12.20;99.90;;;;;;5071474;28;20494;-55
2022/10/21 02:43:40;;;;;;;49.03;29.65;;;12.20;99.90;;;;;;5070322;28;20045;-55
2022/10/21 02:46:15;;;;;;;59.47;30.77;;;12.30;99.90;;;;;;5060195;28;20037;-55
2022/10/21 02:48:45;;;;;;;51.53;31.27;;;12.30;99.90;;;;;;5063117;28;20102;-56
2022/10/21 02:51:11;;;;;;;44.42;28.90;;;12.30;99.90;;;;;;5052973;28;20048;-56
2022/10/21 02:53:37;;;;;;;50.88;30.10;;;12.30;99.90;;;;;;5064695;28;20047;-55
2022/10/21 02:56:03;;;;;;;53.60;30.27;;;12.20;99.90;;;;;;5059484;28;20037;-57
2022/10/21 02:58:29;;;;;;;55.10;30.92;;;12.20;99.90;;;;;;5061547;28;20326;-56
2022/10/21 03:00:55;;;;;;;46.05;28.80;;;12.20;99.90;;;;;;5060650;28;20071;-54
2022/10/21 03:03:20;;;;;;;46.83;29.17;;;12.10;99.90;;;;;;5059591;28;20509;-56
2022/10/21 03:05:46;;;;;;;43.70;27.33;;;12.10;99.90;;;;;;5056884;28;20290;-58
2022/10/21 03:08:11;;;;;;;55.92;32.47;;;12.10;99.90;;;;;;5070885;28;20287;-56
2022/10/21 03:10:37;;;;;;;59.00;31.50;;;12.10;99.90;;;;;;5072027;28;20515;-56
2022/10/21 03:13:03;;;;;;;44.70;26.50;;;12.10;99.90;;;;;;5066798;28;20282;-56
2022/10/21 03:15:29;;;;;;;51.40;30.98;;;12.10;99.90;;;;;;5062117;28;20037;-56
2022/10/21 03:17:54;;;;;;;52.77;30.47;;;12.10;99.90;;;;;;5059547;28;20124;-56
2022/10/21 03:20:20;;;;;;;52.80;28.43;;;12.10;99.90;;;;;;5072032;28;20277;-56
2022/10/21 03:22:45;;;;;;;49.83;31.60;;;12.00;99.90;;;;;;5068007;28;20295;-57
2022/10/21 03:25:11;;;;;;;46.53;28.10;;;12.00;99.90;;;;;;5051555;28;20079;-57
2022/10/21 03:27:37;;;;;;;45.25;27.67;;;12.00;99.90;;;;;;5054696;28;20033;-57
2022/10/21 03:30:04;;;;;;;60.67;29.23;;;12.00;99.90;;;;;;5066242;28;20544;-55
2022/10/21 03:32:30;;;;;;;56.75;31.60;;;11.90;99.90;;;;;;5070929;28;20033;-57
2022/10/21 03:34:55;;;;;;;55.33;31.45;;;12.00;99.90;;;;;;5071071;28;20102;-55
2022/10/21 03:37:21;;;;;;;48.38;28.02;;;11.90;99.90;;;;;;5067031;28;20044;-56
2022/10/21 03:39:46;;;;;;;51.50;27.52;;;11.90;99.90;;;;;;5070208;28;20040;-54
2022/10/21 03:42:12;;;;;;;46.42;27.88;;;11.90;99.90;;;;;;5071581;28;20037;-53
2022/10/21 03:44:38;;;;;;;55.30;28.40;;;11.90;99.90;;;;;;5056824;28;20029;-54
2022/10/21 03:47:03;;;;;;;49.70;28.83;;;11.90;99.90;;;;;;5071984;28;20302;-53
2022/10/21 03:49:29;;;;;;;51.15;29.67;;;11.80;99.90;;;;;;5066270;28;20037;-55
2022/10/21 03:51:54;;;;;;;47.13;27.47;;;11.80;99.90;;;;;;5052033;28;20440;-53
2022/10/21 03:54:20;;;;;;;39.77;25.63;;;11.80;99.90;;;;;;5056992;28;20060;-56
2022/10/21 03:56:46;;;;;;;45.35;25.60;;;11.70;99.90;;;;;;5060724;28;20068;-55
2022/10/21 03:59:11;;;;;;;45.08;26.65;;;11.70;99.90;;;;;;5058999;28;20037;-54
2022/10/21 04:01:37;;;;;;;44.55;28.80;;;11.70;99.90;;;;;;5068235;28;20127;-53
2022/10/21 04:04:02;;;;;;;49.40;29.40;;;11.70;99.90;;;;;;5060966;28;20041;-56
2022/10/21 04:06:28;;;;;;;43.10;27.73;;;11.80;99.90;;;;;;5069085;28;20286;-55
2022/10/21 04:08:54;;;;;;;52.27;29.13;;;11.80;99.90;;;;;;5068214;28;20279;-56
2022/10/21 04:11:19;;;;;;;48.67;28.52;;;11.80;99.90;;;;;;5070840;28;20503;-55
2022/10/21 04:13:45;;;;;;;45.17;27.30;;;11.80;99.90;;;;;;5065190;28;20544;-53
2022/10/21 04:16:17;;;;;;;43.70;25.67;;;11.70;99.90;;;;;;5059921;28;20041;-56
2022/10/21 04:18:43;;;;;;;43.58;27.05;;;11.70;99.90;;;;;;5056869;28;20036;-55
2022/10/21 04:21:09;;;;;;;42.95;26.25;;;11.60;99.90;;;;;;5070575;28;20036;-55
2022/10/21 04:23:35;;;;;;;46.60;27.50;;;11.60;99.90;;;;;;5062389;28;20502;-55
2022/10/21 04:26:01;;;;;;;;;;;11.50;99.90;;;;;;5069791;28;20430;-53
2022/10/21 04:28:27;;;;;;;46.17;27.40;;;11.50;99.90;;;;;;5068102;28;20009;-53
2022/10/21 04:30:52;;;;;;;40.88;25.95;;;11.50;99.90;;;;;;5061379;28;20070;-56
2022/10/21 04:33:18;;;;;;;50.40;28.17;;;11.50;99.90;;;;;;5060718;28;20335;-52
2022/10/21 04:35:43;;;;;;;38.22;24.55;;;11.50;99.90;;;;;;5068995;28;20497;-54
2022/10/21 04:38:09;;;;;;;45.97;25.70;;;11.50;99.90;;;;;;5070297;28;20056;-53
2022/10/21 04:40:35;;;;;;;38.35;24.35;;;11.40;99.90;;;;;;5061930;28;20142;-54
2022/10/21 04:43:00;;;;;;;48.80;27.25;;;11.40;99.90;;;;;;5059457;28;20033;-56
2022/10/21 04:45:26;;;;;;;37.78;25.92;;;11.40;99.90;;;;;;5051087;28;20417;-55
2022/10/21 04:47:51;;;;;;;37.67;24.50;;;11.40;99.90;;;;;;5064369;28;20036;-54
2022/10/21 04:50:17;;;;;;;33.70;22.57;;;11.40;99.90;;;;;;5068183;28;20344;-52
2022/10/21 04:52:42;;;;;;;40.42;24.98;;;11.30;99.90;;;;;;5066235;28;20044;-54
2022/10/21 04:55:08;;;;;;;35.70;22.07;;;11.30;99.90;;;;;;5067851;28;20040;-52
2022/10/21 04:57:34;;;;;;;36.60;23.20;;;11.20;99.90;;;;;;5058314;28;20060;-56
2022/10/21 04:59:59;;;;;;;38.25;24.27;;;11.20;99.90;;;;;;5050283;28;20041;-54
2022/10/21 05:02:25;;;;;;;36.20;23.17;;;11.20;99.90;;;;;;5062826;28;20429;-54
2022/10/21 05:04:50;;;;;;;37.93;25.10;;;11.20;99.90;;;;;;5068093;28;20369;-53
2022/10/21 05:07:16;;;;;;;46.70;27.80;;;11.10;99.90;;;;;;5061002;28;20048;-53
2022/10/21 05:09:41;;;;;;;47.80;25.87;;;11.10;99.90;;;;;;5059259;28;20047;-52
2022/10/21 05:12:07;;;;;;;45.30;25.40;;;11.10;99.90;;;;;;5060829;28;20041;-55
2022/10/21 05:14:33;;;;;;;47.25;27.33;;;11.10;99.90;;;;;;5055410;28;20370;-57
2022/10/21 05:16:58;;;;;;;47.20;26.73;;;11.10;99.90;;;;;;5056020;28;20036;-55
2022/10/21 05:19:24;;;;;;;37.97;25.55;;;11.10;99.90;;;;;;5062571;28;20044;-55
2022/10/21 05:21:49;;;;;;;39.80;24.87;;;11.10;99.90;;;;;;5051937;28;20120;-54
2022/10/21 05:24:15;;;;;;;43.10;24.37;;;11.00;99.90;;;;;;5050223;28;20032;-57
2022/10/21 05:26:41;;;;;;;41.78;24.88;;;11.00;99.90;;;;;;5058884;28;20040;-54
2022/10/21 05:29:07;;;;;;;46.42;25.17;;;11.00;99.90;;;;;;5068640;28;20320;-53
2022/10/21 05:31:33;;;;;;;39.20;24.75;;;11.00;99.90;;;;;;5062928;28;20041;-52
2022/10/21 05:33:59;;;;;;;39.58;23.63;;;11.00;99.90;;;;;;5069741;28;20043;-57
2022/10/21 05:36:24;;;;;;;41.97;24.77;;;11.00;99.90;;;;;;5063257;28;20037;-57
2022/10/21 05:38:50;;;;;;;40.83;24.05;;;11.00;99.90;;;;;;5051036;28;20083;-57
2022/10/21 05:41:15;;;;;;;36.67;24.27;;;11.00;99.90;;;;;;5053058;28;20037;-57
2022/10/21 05:43:42;;;;;;;45.60;25.63;;;11.00;99.90;;;;;;5072377;28;20041;-55
2022/10/21 05:46:08;;;;;;;44.10;24.67;;;10.90;99.90;;;;;;5069426;28;20043;-57
2022/10/21 05:48:34;;;;;;;38.92;24.17;;;11.00;99.90;;;;;;5065757;28;20452;-56
2022/10/21 05:51:00;;;;;;;37.47;24.08;;;10.90;99.90;;;;;;5058152;28;20043;-57
2022/10/21 05:53:25;;;;;;;41.25;24.35;;;11.00;99.90;;;;;;5070917;28;20041;-55
2022/10/21 05:55:59;;;;;;;43.97;25.73;;;10.90;99.90;;;;;;5061086;28;20401;-56
2022/10/21 05:58:26;;;;;;;43.50;25.95;;;11.00;99.90;;;;;;5073260;28;20037;-55
2022/10/21 06:00:53;;;;;;;41.97;24.40;;;11.00;99.90;;;;;;5073395;28;20448;-53
2022/10/21 06:03:23;;;;;;;41.92;24.23;;;10.90;99.90;;;;;;5064039;28;20042;-54
2022/10/21 06:05:50;;;;;;;30.75;20.98;;;10.90;99.90;;;;;;5071299;28;20036;-52
2022/10/21 06:08:16;;;;;;;33.08;21.05;;;10.90;99.90;;;;;;5059704;28;20044;-55
2022/10/21 06:10:42;;;;;;;;;;;10.90;99.90;;;;;;5072156;28;20127;-56
2022/10/21 06:13:08;;;;;;;39.53;24.17;;;10.90;99.90;;;;;;5061169;28;20014;-53
2022/10/21 06:15:35;;;;;;;40.47;25.65;;;11.00;99.90;;;;;;5063516;28;20036;-53
2022/10/21 06:18:00;;;;;;;43.88;25.50;;;11.00;99.90;;;;;;5063816;28;20044;-55
2022/10/21 06:20:26;;;;;;;41.70;26.27;;;11.00;99.90;;;;;;5060873;28;20509;-55
2022/10/21 06:22:51;;;;;;;44.23;25.43;;;11.00;99.90;;;;;;5063747;28;20562;-55
2022/10/21 06:25:17;;;;;;;34.13;22.70;;;11.10;99.90;;;;;;5062837;28;20582;-56
2022/10/21 06:27:42;;;;;;;39.73;23.80;;;11.10;99.90;;;;;;5059467;28;20521;-57
2022/10/21 06:30:09;;;;;;;35.03;23.27;;;11.10;99.90;;;;;;5073370;28;20482;-56
2022/10/21 06:32:34;;;;;;;32.00;21.70;;;11.00;99.90;;;;;;5071775;28;20036;-57
2022/10/21 06:35:00;;;;;;;37.03;23.38;;;11.10;99.90;;;;;;5059644;28;20517;-55
2022/10/21 06:37:26;;;;;;;41.55;25.08;;;11.00;99.90;;;;;;5059085;28;20111;-55
2022/10/21 06:39:51;;;;;;;32.77;20.77;;;11.10;99.90;;;;;;5072737;28;20056;-55
2022/10/21 06:42:17;;;;;;;31.93;22.97;;;11.10;99.90;;;;;;5072515;28;20115;-55
2022/10/21 06:44:42;;;;;;;33.47;24.33;;;11.20;99.90;;;;;;5070844;28;20032;-55
2022/10/21 06:47:09;;;;;;;36.30;22.73;;;11.20;99.90;;;;;;5072998;28;20040;-56
2022/10/21 06:49:34;;;;;;;30.50;20.60;;;11.40;99.90;;;;;;5072700;28;20076;-53
2022/10/21 06:52:00;;;;;;;32.73;19.40;;;11.60;99.90;;;;;;5072455;28;20076;-55
2022/10/21 06:54:26;;;;;;;22.42;18.20;;;12.00;99.90;;;;;;5065118;28;20045;-53
2022/10/21 06:56:51;;;;;;;23.17;17.02;;;12.40;99.90;;;;;;5053132;28;20040;-56
2022/10/21 06:59:17;;;;;;;25.33;16.77;;;12.90;99.90;;;;;;5052520;28;20099;-56
2022/10/21 07:01:42;;;;;;;21.55;13.55;;;13.50;99.90;;;;;;5052630;28;20043;-55
2022/10/21 07:04:09;;;;;;;18.20;13.33;;;14.10;99.90;;;;;;5052132;28;20045;-53
2022/10/21 07:06:34;;;;;;;15.30;11.73;;;14.70;99.90;;;;;;5065039;28;20332;-57
2022/10/21 07:09:00;;;;;;;15.93;11.35;;;15.30;99.90;;;;;;5054948;28;20044;-53
2022/10/21 07:11:26;;;;;;;16.02;10.93;;;15.90;99.90;;;;;;5060478;28;20063;-57
2022/10/21 07:13:52;;;;;;;15.68;10.50;;;16.50;99.90;;;;;;5056431;28;20048;-57
2022/10/21 07:16:20;;;;;;;17.40;10.48;;;17.00;99.90;;;;;;5062674;28;20032;-55
2022/10/21 07:18:46;;;;;;;34.63;12.13;;;17.40;99.90;;;;;;5065813;28;20037;-56
2022/10/21 07:21:24;;;;;;;16.10;10.77;;;17.60;99.90;;;;;;5054333;28;20043;-56
2022/10/21 07:23:51;;;;;;;22.20;11.63;;;17.50;99.90;;;;;;5064338;28;20037;-54
2022/10/21 07:26:18;;;;;;;17.23;12.48;;;17.10;99.90;;;;;;5068140;28;20036;-56
2022/10/21 07:28:46;;;;;;;17.23;11.85;;;16.70;99.90;;;;;;5053759;28;20109;-55
2022/10/21 07:31:14;;;;;;;17.67;13.57;;;16.40;99.90;;;;;;5060124;28;20040;-52
2022/10/21 07:33:39;;;;;;;16.95;14.23;;;16.00;99.90;;;;;;5057980;28;20090;-56
2022/10/21 07:36:17;;;;;;;21.92;14.80;;;15.70;99.90;;;;;;5059313;28;20152;-54
2022/10/21 07:38:45;;;;;;;25.40;16.75;;;15.40;99.90;;;;;;5055204;28;20087;-53
2022/10/21 07:41:23;;;;;;;22.35;16.67;;;15.10;99.90;;;;;;5052900;28;20529;-55
2022/10/21 07:43:50;;;;;;;19.20;14.75;;;14.90;99.90;;;;;;5056049;28;20095;-54
2022/10/21 07:46:17;;;;;;;23.88;15.68;;;14.60;99.90;;;;;;5061859;28;20060;-56
2022/10/21 07:48:43;;;;;;;21.55;16.33;;;14.50;99.90;;;;;;5056138;28;20513;-55
2022/10/21 07:51:11;;;;;;;24.73;16.97;;;14.50;99.90;;;;;;5065853;28;20048;-53
2022/10/21 07:53:38;;;;;;;20.38;17.20;;;14.50;99.90;;;;;;5062409;28;20318;-55
2022/10/21 07:56:14;;;;;;;24.70;18.63;;;14.50;99.90;;;;;;5062552;28;20043;-55
2022/10/21 07:58:40;;;;;;;28.98;17.15;;;14.50;99.90;;;;;;5063601;28;20085;-55
2022/10/21 08:01:07;;;;;;;23.30;17.42;;;14.60;99.90;;;;;;5052161;28;20096;-57
2022/10/21 08:03:33;;;;;;;21.95;16.90;;;14.60;99.90;;;;;;5061135;28;20036;-55
2022/10/21 08:05:59;;;;;;;25.35;16.52;;;14.70;99.90;;;;;;5056509;28;20025;-55
2022/10/21 08:08:26;;;;;;;25.75;18.05;;;14.80;99.90;;;;;;5056388;28;20045;-56
2022/10/21 08:10:52;;;;;;;;;;;14.80;99.90;;;;;;5059660;28;20028;-55
2022/10/21 08:13:18;;;;;;;25.58;16.73;;;14.90;99.90;;;;;;5061915;28;20377;-55
2022/10/21 08:15:49;;;;;;;24.88;15.85;;;14.90;99.90;;;;;;5050077;28;20109;-54
2022/10/21 08:18:15;;;;;;;21.67;15.10;;;15.00;99.90;;;;;;5051729;28;21147;-56
2022/10/21 08:20:42;;;;;;;25.00;17.05;;;15.10;99.90;;;;;;5056258;28;20063;-54
2022/10/21 08:23:09;;;;;;;20.52;15.45;;;15.10;99.90;;;;;;5054645;28;20029;-52
2022/10/21 08:25:34;;;;;;;;;;;15.10;99.90;;;;;;5066051;28;20080;-54
2022/10/21 08:28:01;;;;;;;18.70;15.38;;;15.20;99.90;;;;;;5053166;28;19928;-52
2022/10/21 08:30:30;;;;;;;19.58;15.40;;;15.20;99.90;;;;;;5059991;28;20037;-52
2022/10/21 08:33:00;;;;;;;20.02;15.68;;;15.20;99.90;;;;;;5059649;28;20558;-54
2022/10/21 08:35:29;;;;;;;21.23;14.45;;;15.10;99.90;;;;;;5057862;28;20032;-55
2022/10/21 08:37:55;;;;;;;22.08;14.88;;;15.00;99.90;;;;;;5057928;28;20489;-54
2022/10/21 08:40:21;;;;;;;19.10;13.37;;;14.90;99.90;;;;;;5059413;28;20037;-53
2022/10/21 08:42:47;;;;;;;20.48;15.65;;;14.90;99.90;;;;;;5060171;28;20740;-55
2022/10/21 08:45:45;;;;;;;18.67;14.52;;;14.90;99.90;;;;;;5058706;28;20040;-53
2022/10/21 08:48:16;;;;;;;18.35;13.80;;;14.90;99.90;;;;;;5053067;28;20068;-52
2022/10/21 08:50:47;;;;;;;21.33;13.45;;;14.90;99.90;;;;;;5057633;28;20159;-53
2022/10/21 08:53:19;;;;;;;17.30;13.35;;;15.00;99.90;;;;;;5052120;28;20067;-54
2022/10/21 08:55:45;;;;;;;23.23;13.68;;;15.00;99.90;;;;;;5055422;28;20037;-54
2022/10/21 08:58:22;;;;;;;17.02;13.32;;;14.90;99.90;;;;;;5057671;28;20538;-55
2022/10/21 09:01:10;;;;;;;23.13;14.02;;;15.00;99.90;;;;;;5051303;28;20034;-52
2022/10/21 09:03:57;;;;;;;20.67;14.32;;;15.00;99.90;;;;;;5050240;28;20135;-53
2022/10/21 09:06:35;;;;;;;15.48;13.85;;;15.10;99.90;;;;;;5058589;28;20044;-54
2022/10/21 09:09:31;;;;;;;21.73;14.45;;;15.10;99.90;;;;;;5056030;28;20084;-54
2022/10/21 09:12:16;;;;;;;17.45;14.77;;;15.20;99.90;;;;;;5063944;28;20070;-52
2022/10/21 09:14:50;;;;;;;18.05;14.15;;;15.40;99.90;;;;;;5057957;28;20044;-52
2022/10/21 09:17:21;;;;;;;17.00;13.50;;;15.60;99.90;;;;;;5055014;28;20049;-52
2022/10/21 09:20:05;;;;;;;19.80;12.70;;;15.80;99.90;;;;;;5061533;28;20075;-52
2022/10/21 09:22:45;;;;;;;16.65;11.48;;;16.00;99.90;;;;;;5065791;28;20455;-52
2022/10/21 09:25:49;;;;;;;16.33;12.23;;;16.10;99.90;;;;;;5062358;28;20123;-52
2022/10/21 09:28:15;;;;;;;15.13;11.30;;;16.20;99.90;;;;;;4996894;28;20065;-54
2022/10/21 09:30:41;;;;;;;;;;;16.30;99.90;;;;;;5044130;28;20066;-51
2022/10/21 09:33:23;;;;;;;17.52;10.48;;;16.30;99.90;;;;;;5062702;28;19916;-52
2022/10/21 09:35:53;;;;;;;11.65;8.80;;;16.40;99.90;;;;;;5055487;28;20033;-52
2022/10/21 09:38:39;;;;;;;13.35;9.52;;;16.50;99.90;;;;;;5057069;28;20202;-55
2022/10/21 09:41:06;;;;;;;11.98;8.98;;;16.50;99.90;;;;;;5059160;28;20106;-56
2022/10/21 09:43:31;;;;;;;18.38;10.65;;;16.50;99.90;;;;;;5053180;28;20033;-54
2022/10/21 09:45:57;;;;;;;13.80;9.48;;;16.40;99.90;;;;;;5065612;28;20036;-53
2022/10/21 09:48:26;;;;;;;14.77;9.98;;;16.40;99.90;;;;;;5055278;28;20167;-57
2022/10/21 09:50:56;;;;;;;14.55;10.10;;;16.40;99.90;;;;;;5053507;28;20044;-53
2022/10/21 09:53:31;;;;;;;16.90;9.50;;;16.40;99.90;;;;;;5059157;28;20408;-57
2022/10/21 09:56:13;;;;;;;17.88;10.18;;;16.40;99.90;;;;;;5054901;28;20043;-57
2022/10/21 09:58:48;;;;;;;15.73;9.50;;;16.40;99.90;;;;;;5065328;28;20051;-53
2022/10/21 10:01:21;;;;;;;14.45;9.10;;;16.40;99.90;;;;;;5064156;28;20051;-55
2022/10/21 10:03:51;;;;;;;12.38;8.27;;;16.40;99.90;;;;;;5064202;28;20051;-55
2022/10/21 10:06:37;;;;;;;18.77;8.23;;;16.40;99.90;;;;;;5056838;28;20029;-55
2022/10/21 10:09:25;;;;;;;19.20;8.83;;;16.40;99.90;;;;;;5052683;28;20036;-54
2022/10/21 10:12:03;;;;;;;13.90;8.98;;;16.40;99.90;;;;;;5051265;28;20334;-53
2022/10/21 10:14:37;;;;;;;15.80;9.93;;;16.40;99.90;;;;;;5058937;28;20138;-53
2022/10/21 10:17:22;;;;;;;16.60;8.25;;;16.40;99.90;;;;;;5055346;28;20059;-55
2022/10/21 10:20:03;;;;;;;15.35;8.00;;;16.40;99.90;;;;;;5051728;28;20079;-53
2022/10/21 10:22:41;;;;;;;13.93;8.32;;;16.40;99.90;;;;;;5054447;28;20033;-56
2022/10/21 10:25:13;;;;;;;16.20;9.18;;;16.30;99.90;;;;;;5067993;28;20125;-56
2022/10/21 10:27:52;;;;;;;10.48;8.32;;;16.30;99.90;;;;;;5064607;28;20032;-56
2022/10/21 10:30:18;;;;;;;12.77;9.30;;;16.30;99.90;;;;;;5065262;28;20124;-55
2022/10/21 10:32:46;;;;;;;18.40;9.30;;;16.30;99.90;;;;;;5057379;28;20140;-56
2022/10/21 10:35:28;;;;;;;12.68;9.10;;;16.30;99.90;;;;;;5054166;28;20033;-55
2022/10/21 10:37:57;;;;;;;16.15;8.88;;;16.30;99.90;;;;;;5062937;28;20075;-55
2022/10/21 10:40:25;;;;;;;13.60;8.25;;;16.30;99.90;;;;;;5057185;28;20490;-55
2022/10/21 10:42:58;;;;;;;14.60;8.07;;;16.30;99.90;;;;;;5062659;28;20041;-57
2022/10/21 10:45:24;;;;;;;9.93;7.47;;;16.40;99.90;;;;;;5062812;28;20051;-55
2022/10/21 10:47:53;;;;;;;15.00;8.10;;;16.40;99.90;;;;;;5068539;28;20061;-53
2022/10/21 10:50:41;;;;;;;11.98;7.68;;;16.40;99.90;;;;;;5068883;28;20036;-55
2022/10/21 10:53:22;;;;;;;12.35;6.25;;;16.40;99.90;;;;;;5062511;28;20058;-54
2022/10/21 10:55:57;;;;;;;11.05;7.85;;;16.40;99.90;;;;;;5058361;28;20052;-53
2022/10/21 10:58:26;;;;;;;10.85;6.03;;;16.40;99.90;;;;;;5059198;28;20089;-56
2022/10/21 11:00:56;;;;;;;11.43;7.20;;;16.40;99.90;;;;;;5060908;28;20048;-53
2022/10/21 11:03:32;;;;;;;8.75;5.88;;;16.40;99.90;;;;;;5067415;28;20048;-53
2022/10/21 11:06:12;;;;;;;9.07;6.63;;;16.40;99.90;;;;;;5063674;28;20037;-53
2022/10/21 11:08:42;;;;;;;13.65;7.40;;;16.50;99.90;;;;;;5065256;28;20055;-56
2022/10/21 11:11:33;;;;;;;14.68;6.80;;;16.50;99.90;;;;;;5052118;28;20091;-56
2022/10/21 11:13:58;;;;;;;12.85;7.03;;;16.50;99.90;;;;;;5060846;28;20048;-53
2022/10/21 11:16:42;;;;;;;10.30;6.07;;;16.50;99.90;;;;;;5055855;28;20041;-55
2022/10/21 11:19:19;;;;;;;11.00;7.47;;;16.60;99.90;;;;;;5053149;28;20410;-55
2022/10/21 11:21:50;;;;;;;12.93;7.22;;;16.60;99.90;;;;;;5068776;28;20089;-53
2022/10/21 11:24:49;;;;;;;9.80;6.82;;;16.60;99.90;;;;;;5054165;28;20037;-56
2022/10/21 11:27:27;;;;;;;10.27;5.88;;;16.60;99.90;;;;;;5055270;28;20047;-55
2022/10/21 11:30:18;;;;;;;12.57;6.53;;;16.60;99.90;;;;;;5053141;28;20045;-53
2022/10/21 11:33:32;;;;;;;12.20;7.10;;;16.60;99.90;;;;;;5052644;28;20453;-53
2022/10/21 11:36:23;;;;;;;10.35;6.50;;;16.60;99.90;;;;;;5002261;28;20076;-53
2022/10/21 11:39:07;;;;;;;12.65;6.78;;;16.50;99.90;;;;;;5058151;28;20051;-54
2022/10/21 11:41:36;;;;;;;14.40;7.05;;;16.60;99.90;;;;;;5056746;28;20033;-54
2022/10/21 11:44:14;;;;;;;15.73;6.15;;;16.60;99.90;;;;;;5056509;28;20044;-55
2022/10/21 11:46:49;;;;;;;10.02;7.07;;;16.50;99.90;;;;;;5058479;28;20040;-55
2022/10/21 11:49:27;;;;;;;13.10;6.20;;;16.60;99.90;;;;;;5060127;28;20418;-56
2022/10/21 11:52:11;;;;;;;9.32;5.85;;;16.60;99.90;;;;;;5061649;28;20076;-55
2022/10/21 11:54:56;;;;;;;10.60;6.55;;;16.60;99.90;;;;;;5058370;28;20405;-57
2022/10/21 11:57:54;;;;;;;12.38;7.00;;;16.60;99.90;;;;;;5062301;28;20501;-53
2022/10/21 12:00:23;;;;;;;13.23;5.97;;;16.60;99.90;;;;;;5054221;28;20037;-54
2022/10/21 12:03:09;;;;;;;12.50;6.82;;;16.60;99.90;;;;;;5058083;28;20504;-55
2022/10/21 12:05:44;;;;;;;21.05;7.63;;;16.70;99.90;;;;;;5055127;28;20041;-54
2022/10/21 12:08:19;;;;;;;11.93;6.22;;;16.60;99.90;;;;;;5061514;28;20472;-55
2022/10/21 12:10:44;;;;;;;10.00;6.25;;;16.70;99.90;;;;;;5065714;28;20028;-54
2022/10/21 12:13:22;;;;;;;14.13;5.73;;;16.70;99.90;;;;;;5050362;28;20116;-53
2022/10/21 12:15:57;;;;;;;11.25;6.05;;;16.70;99.90;;;;;;5052790;28;20803;-55
2022/10/21 12:18:24;;;;;;;9.65;5.63;;;16.70;99.90;;;;;;5063382;28;20037;-54
2022/10/21 12:20:53;;;;;;;9.15;5.72;;;16.80;99.90;;;;;;5057601;28;20052;-56
2022/10/21 12:23:24;;;;;;;10.82;5.82;;;16.80;99.90;;;;;;5064811;28;20049;-53
2022/10/21 12:26:03;;;;;;;9.75;6.10;;;16.80;99.90;;;;;;5059062;28;20401;-54
2022/10/21 12:28:48;;;;;;;12.18;5.70;;;16.80;99.90;;;;;;5057087;28;20551;-53
2022/10/21 12:31:47;;;;;;;11.35;6.80;;;16.80;99.90;;;;;;5063659;28;20040;-57
2022/10/21 12:34:14;;;;;;;9.15;5.55;;;16.90;99.90;;;;;;5058934;28;20116;-56
2022/10/21 12:36:45;;;;;;;14.55;5.60;;;16.90;99.90;;;;;;5056086;28;20045;-54
2022/10/21 12:39:47;;;;;;;12.38;6.30;;;16.90;99.90;;;;;;5057204;28;20075;-53
2022/10/21 12:42:16;;;;;;;12.32;5.78;;;16.80;99.90;;;;;;5056018;28;20041;-55
2022/10/21 12:44:47;;;;;;;12.55;5.82;;;16.80;99.90;;;;;;5050961;28;20044;-55
2022/10/21 12:47:30;;;;;;;7.03;5.90;;;16.80;99.90;;;;;;5059720;28;20127;-54
2022/10/21 12:50:04;;;;;;;11.80;5.60;;;16.80;99.90;;;;;;5052976;28;20105;-57